Time;durP1;ratioP1;P1;durP2;ratioP2;P2;SDS_P1;SDS_P2;PMS_P1;PMS_P2;Temp;Humidity;BMP_temperature;BMP_pressure;BME280_temperature;BME280_humidity;BME280_pressure;Samples;Min_cycle;Max_cycle;Signal;HPM_P1;HPM_P2
2021/08/13 00:00:24;;;;;;;13.70;1.32;;;;;;;16.50;66.05;100072.07;1709630;82;21141;-60
2021/08/13 00:02:50;;;;;;;12.55;1.25;;;;;;;16.51;66.09;100074.30;1712778;82;21070;-58
2021/08/13 00:05:17;;;;;;;7.15;1.20;;;;;;;16.51;66.14;100068.38;1716596;81;21295;-60
2021/08/13 00:07:43;;;;;;;5.65;0.93;;;;;;;16.48;66.16;100065.02;1713073;82;21089;-59
2021/08/13 00:10:10;;;;;;;6.08;1.07;;;;;;;16.49;66.29;100081.71;1713914;82;21093;-57
2021/08/13 00:12:38;;;;;;;2.52;0.85;;;;;;;16.47;66.30;100082.30;1711754;82;21575;-59
2021/08/13 00:15:06;;;;;;;5.53;1.20;;;;;;;16.44;66.25;100075.21;1707761;81;21062;-59
2021/08/13 00:17:35;;;;;;;6.33;1.02;;;;;;;16.44;66.47;100078.41;1712784;82;21892;-60
2021/08/13 00:20:03;;;;;;;4.22;1.00;;;;;;;16.43;66.45;100077.54;1711393;82;21377;-60
2021/08/13 00:22:31;;;;;;;3.77;1.05;;;;;;;16.44;66.54;100079.28;1721359;82;20920;-60
2021/08/13 00:24:58;;;;;;;2.00;0.93;;;;;;;16.44;66.63;100079.28;1723328;81;21395;-57
2021/08/13 00:27:24;;;;;;;1.60;0.82;;;;;;;16.45;66.62;100076.08;1727767;82;21065;-58
2021/08/13 00:29:52;;;;;;;6.90;1.10;;;;;;;16.43;66.54;100075.31;1731927;80;20875;-57
2021/08/13 00:32:18;;;;;;;1.67;0.80;;;;;;;16.43;66.65;100078.90;1732670;82;20907;-59
2021/08/13 00:34:44;;;;;;;4.55;0.90;;;;;;;16.42;66.54;100070.36;1727704;82;21409;-60
2021/08/13 00:37:11;;;;;;;6.55;1.40;;;;;;;16.41;66.63;100079.52;1727100;80;21402;-57
2021/08/13 00:39:39;;;;;;;4.58;1.00;;;;;;;16.39;66.60;100077.37;1728565;82;20922;-60
2021/08/13 00:42:06;;;;;;;6.35;1.22;;;;;;;16.39;66.69;100077.37;1726657;82;20914;-57
2021/08/13 00:44:35;;;;;;;2.45;0.65;;;;;;;16.37;66.71;100082.03;1730308;82;20916;-59
2021/08/13 00:47:02;;;;;;;7.33;0.90;;;;;;;16.36;66.76;100078.93;1727997;82;20995;-59
2021/08/13 00:49:30;;;;;;;5.45;1.25;;;;;;;16.37;66.84;100078.45;1722543;80;22032;-60
2021/08/13 00:52:09;;;;;;;9.75;1.10;;;;;;;16.36;66.88;100081.64;1729582;82;21523;-56
2021/08/13 00:54:38;;;;;;;1.07;0.98;;;;;;;16.35;66.99;100086.69;1653527;84;21003;-59
2021/08/13 00:57:05;;;;;;;2.75;0.93;;;;;;;16.35;66.83;100088.05;1724973;82;20899;-58
2021/08/13 00:59:33;;;;;;;4.22;1.00;;;;;;;16.33;66.70;100091.87;1684766;82;21022;-60
2021/08/13 01:02:08;;;;;;;1.92;0.95;;;;;;;16.30;66.64;100087.50;1728697;82;21745;-57
2021/08/13 01:04:35;;;;;;;2.55;0.90;;;;;;;16.30;66.63;100092.05;1729884;82;21340;-58
2021/08/13 01:07:03;;;;;;;1.70;0.90;;;;;;;16.25;66.59;100097.78;1699894;82;20994;-55
2021/08/13 01:09:31;;;;;;;1.40;0.72;;;;;;;16.20;66.63;100098.09;1729293;82;21015;-54
2021/08/13 01:12:02;;;;;;;1.15;0.53;;;;;;;16.17;66.71;100101.48;1705195;82;21167;-53
2021/08/13 01:15:07;;;;;;;5.45;0.80;;;;;;;16.16;66.97;100106.05;1724131;82;21065;-54
2021/08/13 01:17:52;;;;;;;;;;;;;;;16.14;67.00;100098.98;1716982;82;21276;-54
2021/08/13 01:20:38;;;;;;;0.82;0.70;;;;;;;16.13;66.96;100109.47;1730026;80;20097;-53
2021/08/13 01:23:19;;;;;;;1.07;0.80;;;;;;;16.11;67.04;100101.41;1730161;82;21505;-53
2021/08/13 01:25:51;;;;;;;1.77;0.80;;;;;;;16.11;67.09;100114.12;1717053;81;20904;-53
2021/08/13 01:28:57;;;;;;;2.10;0.90;;;;;;;16.10;67.08;100111.02;1711557;82;20975;-54
2021/08/13 01:31:27;;;;;;;1.62;0.70;;;;;;;16.08;67.08;100111.59;1710291;81;21256;-55
2021/08/13 01:34:02;;;;;;;3.58;0.93;;;;;;;16.03;67.32;100113.27;1710852;81;21121;-55
2021/08/13 01:36:30;;;;;;;1.85;0.80;;;;;;;15.99;67.16;100116.29;1692971;82;20911;-55
2021/08/13 01:39:01;;;;;;;2.58;0.72;;;;;;;15.94;67.24;100117.92;1716097;81;21371;-55
2021/08/13 01:41:31;;;;;;;2.58;0.80;;;;;;;15.87;67.33;100109.31;1715796;82;21064;-54
2021/08/13 01:43:58;;;;;;;1.10;0.60;;;;;;;15.85;67.45;100115.80;1717474;81;21550;-54
2021/08/13 01:46:25;;;;;;;1.90;0.70;;;;;;;15.81;67.31;100121.05;1720505;81;21511;-55
2021/08/13 01:49:00;;;;;;;2.33;0.70;;;;;;;15.81;67.31;100121.05;1717877;81;20990;-54
2021/08/13 01:51:30;;;;;;;1.10;0.90;;;;;;;15.80;67.46;100124.73;1718275;82;20915;-54
2021/08/13 01:53:59;;;;;;;1.77;0.80;;;;;;;15.78;67.62;100126.67;1718531;82;21078;-57
2021/08/13 01:56:27;;;;;;;3.08;0.80;;;;;;;15.78;67.62;100126.67;1707682;82;21054;-56
2021/08/13 01:58:56;;;;;;;1.95;1.00;;;;;;;15.78;67.78;100136.17;1709469;81;21078;-55
2021/08/13 02:01:27;;;;;;;2.52;0.90;;;;;;;15.77;67.68;100135.77;1715375;82;21094;-55
2021/08/13 02:03:55;;;;;;;2.95;0.90;;;;;;;15.74;67.82;100137.31;1669512;82;21057;-56
2021/08/13 02:06:23;;;;;;;1.72;0.88;;;;;;;15.71;67.85;100145.67;1714403;81;21096;-55
2021/08/13 02:08:51;;;;;;;1.45;0.80;;;;;;;15.63;67.97;100148.87;1710012;82;21770;-56
2021/08/13 02:11:21;;;;;;;3.35;0.80;;;;;;;15.63;67.97;100148.87;1716759;82;21105;-55
2021/08/13 02:13:49;;;;;;;2.02;0.70;;;;;;;15.61;68.10;100152.16;1712771;82;21087;-55
2021/08/13 02:16:21;;;;;;;1.37;0.80;;;;;;;15.58;68.32;100156.41;1713995;82;21093;-54
2021/08/13 02:18:56;;;;;;;1.65;0.80;;;;;;;15.58;68.32;100156.41;1715537;82;20943;-54
2021/08/13 02:21:24;;;;;;;2.22;1.15;;;;;;;15.56;68.36;100163.80;1716352;82;20971;-56
2021/08/13 02:23:51;;;;;;;6.17;0.95;;;;;;;15.54;68.41;100158.06;1714059;82;21113;-56
2021/08/13 02:26:20;;;;;;;1.85;1.00;;;;;;;15.52;68.43;100160.83;1691048;82;21114;-56
2021/08/13 02:28:47;;;;;;;2.67;0.95;;;;;;;15.48;68.58;100165.56;1713382;81;21086;-55
2021/08/13 02:31:16;;;;;;;2.72;1.05;;;;;;;15.42;68.62;100156.45;1715423;82;21645;-53
2021/08/13 02:33:42;;;;;;;2.58;0.95;;;;;;;15.27;68.72;100174.16;1714391;81;21082;-54
2021/08/13 02:36:13;;;;;;;1.77;1.00;;;;;;;15.27;68.72;100174.16;1700094;82;22148;-55
2021/08/13 02:38:47;;;;;;;2.37;0.90;;;;;;;15.23;68.91;100177.52;1690429;82;21050;-55
2021/08/13 02:41:15;;;;;;;2.00;0.80;;;;;;;15.15;68.99;100179.34;1721440;82;21101;-55
2021/08/13 02:44:02;;;;;;;4.10;1.20;;;;;;;15.11;68.99;100176.93;1710157;82;22073;-54
2021/08/13 02:46:35;;;;;;;2.62;1.40;;;;;;;15.06;69.19;100183.97;1697433;82;20907;-54
2021/08/13 02:49:02;;;;;;;3.35;1.20;;;;;;;15.00;69.20;100182.11;1692234;82;20998;-54
2021/08/13 02:51:30;;;;;;;2.47;1.20;;;;;;;15.00;69.20;100182.11;1712303;82;21488;-54
2021/08/13 02:53:59;;;;;;;2.80;1.30;;;;;;;14.97;69.41;100185.02;1713952;82;20923;-54
2021/08/13 02:56:29;;;;;;;1.98;1.00;;;;;;;14.92;69.57;100184.41;1688716;81;21157;-54
2021/08/13 02:59:02;;;;;;;1.80;0.98;;;;;;;14.87;69.74;100187.41;1711815;82;20919;-55
2021/08/13 03:01:32;;;;;;;2.35;0.90;;;;;;;14.85;69.74;100183.02;1715656;81;21046;-56
2021/08/13 03:03:59;;;;;;;1.25;0.70;;;;;;;14.81;69.86;100187.73;1715938;82;20876;-54
2021/08/13 03:06:35;;;;;;;1.65;0.93;;;;;;;14.80;69.96;100191.92;1714251;82;21015;-55
2021/08/13 03:09:03;;;;;;;1.90;0.90;;;;;;;14.78;69.98;100194.72;1713406;81;21684;-55
2021/08/13 03:11:29;;;;;;;2.17;1.17;;;;;;;14.72;70.37;100189.63;1693488;82;21785;-54
2021/08/13 03:13:58;;;;;;;1.70;0.80;;;;;;;14.72;70.37;100189.63;1711805;82;21042;-56
2021/08/13 03:16:28;;;;;;;3.67;0.90;;;;;;;14.71;70.23;100190.63;1721928;81;21531;-54
2021/08/13 03:18:54;;;;;;;1.60;0.95;;;;;;;14.69;70.28;100196.60;1713274;82;21114;-55
2021/08/13 03:21:25;;;;;;;2.08;0.98;;;;;;;14.67;70.38;100195.81;1712268;82;21507;-54
2021/08/13 03:23:53;;;;;;;2.47;1.10;;;;;;;14.65;70.43;100203.14;1719492;82;20908;-54
2021/08/13 03:26:19;;;;;;;4.33;1.10;;;;;;;14.64;70.56;100199.56;1718970;81;20910;-55
2021/08/13 03:28:48;;;;;;;3.30;1.00;;;;;;;14.65;70.92;100196.37;1736014;81;20922;-54
2021/08/13 03:31:38;;;;;;;4.25;0.98;;;;;;;14.65;70.92;100196.37;1741311;81;20907;-54
2021/08/13 03:34:07;;;;;;;2.33;0.90;;;;;;;14.65;71.12;100200.44;1737714;80;21484;-55
2021/08/13 03:36:36;;;;;;;3.67;0.90;;;;;;;14.66;71.27;100198.12;1737698;81;21343;-54
2021/08/13 03:39:05;;;;;;;3.17;1.02;;;;;;;14.68;71.44;100201.14;1703781;83;21717;-54
2021/08/13 03:41:32;;;;;;;4.30;1.10;;;;;;;14.72;71.62;100207.24;1683987;83;20930;-56
2021/08/13 03:43:59;;;;;;;2.08;1.00;;;;;;;14.74;71.72;100205.33;1679859;83;21465;-56
2021/08/13 03:46:25;;;;;;;2.77;1.15;;;;;;;14.78;71.85;100216.39;1675210;83;22070;-54
2021/08/13 03:48:52;;;;;;;1.40;1.00;;;;;;;14.81;71.94;100220.26;1675495;83;21554;-55
2021/08/13 03:51:18;;;;;;;2.15;0.90;;;;;;;14.85;72.08;100215.55;1678520;83;21052;-54
2021/08/13 03:53:45;;;;;;;2.37;0.90;;;;;;;14.90;72.14;100226.50;1673288;84;21071;-55
2021/08/13 03:56:12;;;;;;;4.03;0.90;;;;;;;14.96;72.24;100215.80;1674505;83;20933;-55
2021/08/13 03:58:41;;;;;;;1.75;0.82;;;;;;;15.01;72.25;100217.27;1682941;83;21643;-56
2021/08/13 04:01:08;;;;;;;2.55;0.80;;;;;;;15.10;72.26;100220.79;1701337;83;21088;-54
2021/08/13 04:03:35;;;;;;;3.05;1.10;;;;;;;15.16;72.22;100218.19;1698772;83;20985;-54
2021/08/13 04:06:02;;;;;;;1.98;1.02;;;;;;;15.22;72.25;100220.55;1700454;83;21540;-55
2021/08/13 04:08:31;;;;;;;3.20;1.15;;;;;;;15.28;72.14;100220.18;1702746;83;21546;-53
2021/08/13 04:10:57;;;;;;;4.17;1.65;;;;;;;15.38;72.11;100223.21;1676275;83;21664;-54
2021/08/13 04:13:24;;;;;;;3.98;1.07;;;;;;;15.57;71.79;100223.84;1674368;83;20909;-53
2021/08/13 04:15:54;;;;;;;4.90;1.10;;;;;;;15.57;71.79;100223.84;1679114;83;21610;-54
2021/08/13 04:18:23;;;;;;;4.53;1.22;;;;;;;15.80;71.51;100219.73;1701944;83;21519;-54
2021/08/13 04:20:49;;;;;;;7.75;1.30;;;;;;;15.91;71.50;100221.27;1682525;83;21517;-54
2021/08/13 04:23:19;;;;;;;2.87;1.10;;;;;;;15.91;71.50;100221.27;1684280;83;20922;-53
2021/08/13 04:25:45;;;;;;;1.40;1.00;;;;;;;16.06;71.18;100224.41;1680592;83;21027;-54
2021/08/13 04:28:12;;;;;;;1.32;0.90;;;;;;;16.26;70.89;100225.34;1675568;83;21060;-54
2021/08/13 04:30:39;;;;;;;3.50;1.42;;;;;;;16.50;70.37;100231.03;1723883;81;21641;-53
2021/08/13 04:33:11;;;;;;;1.52;0.90;;;;;;;16.71;69.73;100227.92;1737384;82;21126;-55
2021/08/13 04:35:40;;;;;;;1.27;1.02;;;;;;;16.90;69.14;100231.18;1729930;81;21077;-53
2021/08/13 04:38:08;;;;;;;2.58;0.90;;;;;;;17.10;68.47;100221.17;1735583;82;20988;-55
2021/08/13 04:40:36;;;;;;;1.70;0.90;;;;;;;17.19;67.85;100216.47;1728639;82;21319;-53
2021/08/13 04:43:03;;;;;;;1.37;1.00;;;;;;;17.22;67.41;100225.80;1727798;82;21103;-53
2021/08/13 04:45:30;;;;;;;1.37;0.85;;;;;;;17.18;67.14;100228.84;1737711;80;21069;-54
2021/08/13 04:47:57;;;;;;;5.80;0.80;;;;;;;17.14;67.03;100230.89;1733745;82;23250;-55
2021/08/13 04:50:24;;;;;;;3.62;0.80;;;;;;;17.07;66.80;100230.92;1702567;82;21156;-54
2021/08/13 04:52:52;;;;;;;2.35;0.70;;;;;;;17.02;66.94;100229.86;1727509;82;21085;-56
2021/08/13 04:55:20;;;;;;;1.22;0.70;;;;;;;17.01;67.10;100237.63;1726065;82;21050;-54
2021/08/13 04:57:47;;;;;;;1.40;0.85;;;;;;;17.04;67.17;100228.40;1724590;82;21053;-55
2021/08/13 05:00:15;;;;;;;1.55;0.80;;;;;;;17.08;67.01;100234.03;1728824;82;21093;-55
2021/08/13 05:02:41;;;;;;;3.27;0.80;;;;;;;17.10;66.90;100232.05;1728644;82;21081;-55
2021/08/13 05:05:08;;;;;;;0.80;0.62;;;;;;;17.14;66.97;100232.73;1728179;82;21397;-54
2021/08/13 05:07:35;;;;;;;2.65;0.80;;;;;;;17.16;66.96;100230.30;1733479;82;20942;-55
2021/08/13 05:10:10;;;;;;;1.00;0.88;;;;;;;17.20;66.79;100233.67;1735352;82;21001;-55
2021/08/13 05:12:37;;;;;;;1.55;0.80;;;;;;;17.22;66.54;100234.45;1732576;80;21089;-55
2021/08/13 05:15:06;;;;;;;1.37;0.80;;;;;;;17.23;66.40;100238.91;1727252;82;21499;-55
2021/08/13 05:17:33;;;;;;;3.22;0.85;;;;;;;17.26;66.49;100247.75;1724486;82;21088;-54
2021/08/13 05:20:01;;;;;;;8.18;1.45;;;;;;;17.31;66.46;100252.38;1730932;80;21053;-55
2021/08/13 05:22:28;;;;;;;3.00;0.90;;;;;;;17.40;66.42;100259.05;1730985;82;21022;-54
2021/08/13 05:24:56;;;;;;;1.00;0.88;;;;;;;17.47;67.49;100253.56;1729415;80;21415;-54
2021/08/13 05:27:23;;;;;;;1.72;0.80;;;;;;;17.50;67.58;100252.48;1725469;82;21026;-53
2021/08/13 05:29:52;;;;;;;4.25;1.02;;;;;;;17.56;67.63;100252.05;1732881;80;21101;-53
2021/08/13 05:32:19;;;;;;;2.02;0.70;;;;;;;17.62;67.29;100252.53;1726159;82;21107;-53
2021/08/13 05:34:45;;;;;;;7.25;0.72;;;;;;;17.68;67.55;100248.53;1727257;82;21065;-55
2021/08/13 05:40:01;;;;;;;1.50;0.90;;;;;;;17.90;67.17;100254.20;1767875;79;27005;-55
2021/08/13 05:42:28;;;;;;;0.88;0.75;;;;;;;17.96;67.15;100263.78;1735706;80;21326;-54
2021/08/13 05:44:55;;;;;;;2.08;0.80;;;;;;;18.01;67.00;100258.41;1737572;81;21087;-56
2021/08/13 05:47:22;;;;;;;3.87;1.27;;;;;;;18.09;66.84;100264.67;1738477;80;20977;-55
2021/08/13 05:49:49;;;;;;;1.75;0.90;;;;;;;18.16;66.76;100264.61;1735705;80;21131;-56
2021/08/13 05:52:18;;;;;;;1.77;0.80;;;;;;;18.21;66.39;100270.59;1731740;81;20953;-56
2021/08/13 05:54:45;;;;;;;1.70;1.00;;;;;;;18.25;66.06;100267.17;1735156;80;20962;-55
2021/08/13 05:57:11;;;;;;;1.60;0.90;;;;;;;18.28;66.13;100273.28;1739689;80;21132;-55
2021/08/13 05:59:38;;;;;;;7.17;1.42;;;;;;;18.35;66.34;100275.94;1734262;81;20966;-57
2021/08/13 06:02:06;;;;;;;1.00;0.90;;;;;;;18.41;65.83;100275.49;1743038;80;20959;-56
2021/08/13 06:04:32;;;;;;;2.45;0.90;;;;;;;18.47;65.69;100275.53;1732740;80;21020;-56
2021/08/13 06:06:59;;;;;;;1.02;0.80;;;;;;;18.54;65.62;100286.39;1732935;80;21061;-54
2021/08/13 06:09:26;;;;;;;5.15;1.90;;;;;;;18.60;65.55;100275.55;1746080;80;21153;-54
2021/08/13 06:11:53;;;;;;;2.02;0.90;;;;;;;18.67;65.35;100283.17;1741541;81;21046;-55
2021/08/13 06:14:20;;;;;;;1.40;0.98;;;;;;;18.72;65.03;100275.52;1740683;80;21059;-56
2021/08/13 06:16:47;;;;;;;1.75;0.80;;;;;;;18.76;64.65;100278.90;1741523;81;21480;-56
2021/08/13 06:19:15;;;;;;;3.00;0.80;;;;;;;18.80;64.75;100274.94;1735115;80;22554;-55
2021/08/13 06:21:44;;;;;;;1.00;0.62;;;;;;;18.84;64.56;100273.75;1731377;80;22116;-57
2021/08/13 06:24:12;;;;;;;1.32;0.90;;;;;;;18.90;64.55;100276.01;1728875;80;21037;-55
2021/08/13 06:26:40;;;;;;;3.42;0.70;;;;;;;18.99;64.44;100272.59;1726407;80;21061;-56
2021/08/13 06:29:08;;;;;;;1.00;0.80;;;;;;;19.08;64.39;100274.64;1731777;80;20963;-56
2021/08/13 06:31:34;;;;;;;1.62;0.70;;;;;;;19.16;64.09;100270.84;1732681;80;20919;-55
2021/08/13 06:34:00;;;;;;;0.75;0.70;;;;;;;19.25;63.97;100266.54;1730087;80;21929;-56
2021/08/13 06:36:27;;;;;;;2.42;0.80;;;;;;;19.35;63.43;100269.45;1698808;81;21054;-56
2021/08/13 06:38:53;;;;;;;2.12;0.70;;;;;;;19.40;63.26;100264.49;1726778;80;21129;-55
2021/08/13 06:41:20;;;;;;;0.82;0.75;;;;;;;19.44;62.82;100270.98;1726768;82;21053;-55
2021/08/13 06:43:51;;;;;;;1.02;0.70;;;;;;;19.46;62.47;100266.28;1728700;80;21045;-57
2021/08/13 06:46:18;;;;;;;1.50;0.80;;;;;;;19.49;62.28;100271.52;1722517;80;22276;-56
2021/08/13 06:48:44;;;;;;;0.60;0.60;;;;;;;19.54;62.10;100272.05;1700504;82;20922;-55
2021/08/13 06:51:10;;;;;;;1.07;0.72;;;;;;;19.56;61.51;100276.04;1728628;80;21377;-58
2021/08/13 06:53:37;;;;;;;2.62;0.88;;;;;;;19.57;61.53;100274.53;1726925;82;20961;-57
2021/08/13 06:56:05;;;;;;;3.42;0.80;;;;;;;19.61;61.71;100275.17;1728200;82;21057;-55
2021/08/13 06:58:32;;;;;;;2.22;0.70;;;;;;;19.68;62.19;100274.20;1723068;82;23262;-55
2021/08/13 07:00:59;;;;;;;1.20;0.70;;;;;;;19.76;62.17;100273.11;1725401;80;21429;-56
2021/08/13 07:03:26;;;;;;;0.80;0.60;;;;;;;19.87;61.85;100274.52;1729347;80;21562;-54
2021/08/13 07:05:52;;;;;;;3.17;1.12;;;;;;;20.00;61.39;100267.08;1724959;80;21648;-57
2021/08/13 07:08:18;;;;;;;1.12;0.70;;;;;;;20.12;61.07;100272.95;1686342;82;21080;-57
2021/08/13 07:10:47;;;;;;;1.10;0.80;;;;;;;20.23;60.61;100274.84;1736228;80;22588;-54
2021/08/13 07:13:14;;;;;;;2.55;0.60;;;;;;;20.30;59.46;100271.48;1728407;80;20934;-55
2021/08/13 07:15:42;;;;;;;0.95;0.60;;;;;;;20.31;58.63;100272.36;1731329;80;21103;-55
2021/08/13 07:18:08;;;;;;;1.10;0.70;;;;;;;20.32;58.43;100271.37;1726139;80;21144;-56
2021/08/13 07:20:36;;;;;;;0.95;0.70;;;;;;;20.34;58.21;100266.66;1705057;80;21097;-56
2021/08/13 07:23:04;;;;;;;1.17;0.60;;;;;;;20.37;58.21;100274.13;1723533;80;22257;-57
2021/08/13 07:25:31;;;;;;;1.35;0.55;;;;;;;20.39;57.81;100276.25;1725095;80;21052;-58
2021/08/13 07:27:57;;;;;;;2.47;0.70;;;;;;;20.42;57.85;100268.77;1724613;80;21572;-57
2021/08/13 07:30:24;;;;;;;2.20;0.70;;;;;;;20.48;58.08;100276.50;1730557;80;21718;-57
2021/08/13 07:32:50;;;;;;;2.22;0.65;;;;;;;20.56;57.78;100282.22;1697311;80;21444;-58
2021/08/13 07:35:17;;;;;;;1.20;0.80;;;;;;;20.62;57.56;100278.48;1721052;80;22270;-57
2021/08/13 07:37:45;;;;;;;0.78;0.60;;;;;;;20.68;56.95;100269.77;1726458;80;21116;-58
2021/08/13 07:40:12;;;;;;;1.92;0.70;;;;;;;20.73;57.26;100273.02;1724026;80;21034;-58
2021/08/13 07:42:41;;;;;;;4.60;0.80;;;;;;;20.81;56.97;100266.91;1712088;80;21119;-54
2021/08/13 07:45:10;;;;;;;0.90;0.55;;;;;;;20.90;56.13;100267.52;1717212;80;20868;-56
2021/08/13 07:47:36;;;;;;;3.33;0.70;;;;;;;20.95;56.31;100271.22;1718369;80;21491;-55
2021/08/13 07:50:04;;;;;;;1.90;0.80;;;;;;;21.01;55.59;100272.94;1711111;80;21635;-57
2021/08/13 07:52:31;;;;;;;1.57;0.60;;;;;;;21.06;55.74;100263.87;1710864;80;21089;-56
2021/08/13 07:54:58;;;;;;;2.50;0.70;;;;;;;21.13;55.30;100262.35;1714196;80;21066;-57
2021/08/13 07:57:25;;;;;;;0.75;0.60;;;;;;;21.20;55.42;100259.12;1720917;80;20993;-56
2021/08/13 07:59:52;;;;;;;0.68;0.60;;;;;;;21.27;55.20;100246.65;1714953;80;22660;-57
2021/08/13 08:02:20;;;;;;;2.25;0.70;;;;;;;21.36;54.94;100252.72;1715907;80;21178;-58
2021/08/13 08:04:46;;;;;;;0.72;0.60;;;;;;;21.44;54.48;100251.06;1719668;80;21464;-59
2021/08/13 08:07:14;;;;;;;2.08;0.60;;;;;;;21.49;54.03;100247.45;1718651;80;21083;-58
2021/08/13 08:09:40;;;;;;;2.15;0.60;;;;;;;21.54;54.12;100245.67;1715601;80;21089;-58
2021/08/13 08:12:07;;;;;;;1.57;0.60;;;;;;;21.58;53.50;100252.64;1716357;80;21912;-55
2021/08/13 08:14:33;;;;;;;0.88;0.55;;;;;;;21.63;53.20;100249.48;1717653;80;21532;-55
2021/08/13 08:17:00;;;;;;;1.60;0.50;;;;;;;21.66;52.26;100251.48;1714213;81;21014;-55
2021/08/13 08:19:26;;;;;;;1.30;0.60;;;;;;;21.67;51.83;100255.95;1712312;82;21325;-59
2021/08/13 08:21:53;;;;;;;1.42;0.60;;;;;;;21.70;51.68;100249.32;1712659;81;21121;-52
2021/08/13 08:24:19;;;;;;;1.00;0.60;;;;;;;21.75;52.16;100249.81;1711545;82;21124;-55
2021/08/13 08:26:45;;;;;;;1.45;0.53;;;;;;;21.78;51.23;100250.39;1711605;81;21279;-55
2021/08/13 08:29:12;;;;;;;0.85;0.60;;;;;;;21.78;51.08;100245.41;1714214;81;21054;-55
2021/08/13 08:31:38;;;;;;;0.80;0.60;;;;;;;21.78;51.43;100249.03;1718698;82;20974;-53
2021/08/13 08:34:04;;;;;;;0.80;0.60;;;;;;;21.82;51.36;100255.13;1721812;82;21379;-57
2021/08/13 08:36:30;;;;;;;0.68;0.57;;;;;;;21.86;51.47;100247.86;1710662;82;22326;-55
2021/08/13 08:38:57;;;;;;;2.25;0.57;;;;;;;21.89;50.99;100244.86;1712819;80;21145;-56
2021/08/13 08:41:23;;;;;;;0.60;0.50;;;;;;;21.96;51.19;100251.16;1705098;82;21690;-55
2021/08/13 08:43:49;;;;;;;0.80;0.60;;;;;;;22.03;49.77;100255.17;1710775;82;21058;-56
2021/08/13 08:46:19;;;;;;;0.80;0.60;;;;;;;22.06;49.52;100253.01;1719994;81;21066;-54
2021/08/13 08:48:49;;;;;;;4.28;0.60;;;;;;;22.10;50.28;100253.13;1712444;82;21153;-55
2021/08/13 08:51:17;;;;;;;2.55;0.50;;;;;;;22.18;50.48;100259.30;1724150;82;20963;-56
2021/08/13 08:53:50;;;;;;;0.62;0.50;;;;;;;22.28;50.12;100254.73;1719507;82;21082;-53
2021/08/13 08:56:18;;;;;;;1.75;0.50;;;;;;;22.34;49.57;100248.70;1713827;82;21553;-55
2021/08/13 08:58:45;;;;;;;0.85;0.60;;;;;;;22.42;49.79;100254.87;1712483;82;21093;-54
2021/08/13 09:01:13;;;;;;;0.98;0.50;;;;;;;22.49;50.01;100256.05;1715241;82;22436;-55
2021/08/13 09:03:41;;;;;;;0.50;0.42;;;;;;;22.55;48.99;100259.60;1714737;82;21591;-56
2021/08/13 09:06:08;;;;;;;0.88;0.57;;;;;;;22.59;49.06;100257.83;1713383;82;21034;-57
2021/08/13 09:08:34;;;;;;;1.07;0.50;;;;;;;22.63;48.76;100253.79;1720541;82;20935;-55
2021/08/13 09:11:01;;;;;;;0.65;0.60;;;;;;;22.69;48.63;100255.13;1715582;82;20998;-57
2021/08/13 09:13:28;;;;;;;0.62;0.42;;;;;;;22.75;48.37;100255.09;1717004;82;21512;-55
2021/08/13 09:15:55;;;;;;;1.57;0.60;;;;;;;22.77;47.46;100243.48;1713548;81;21102;-55
2021/08/13 09:18:26;;;;;;;0.57;0.50;;;;;;;22.83;48.01;100245.16;1716785;82;20939;-56
2021/08/13 09:21:00;;;;;;;0.70;0.60;;;;;;;22.89;48.35;100253.33;1715849;82;22053;-55
2021/08/13 09:23:34;;;;;;;0.82;0.50;;;;;;;22.96;48.79;100250.41;1717094;82;21057;-56
2021/08/13 09:26:10;;;;;;;0.90;0.40;;;;;;;23.06;48.21;100241.66;1714105;82;21085;-55
2021/08/13 09:29:00;;;;;;;0.85;0.60;;;;;;;23.14;47.49;100243.20;1716047;82;21054;-53
2021/08/13 09:31:41;;;;;;;0.98;0.50;;;;;;;23.22;48.02;100239.77;1715742;82;21607;-56
2021/08/13 09:34:13;;;;;;;1.12;0.60;;;;;;;23.28;47.37;100240.05;1709060;82;21058;-55
2021/08/13 09:36:53;;;;;;;0.80;0.60;;;;;;;23.31;47.11;100242.49;1721567;82;21018;-55
2021/08/13 09:39:26;;;;;;;2.95;0.50;;;;;;;23.32;47.06;100248.35;1712076;82;21074;-56
2021/08/13 09:41:55;;;;;;;0.53;0.42;;;;;;;23.35;47.66;100242.59;1714073;82;20891;-55
2021/08/13 09:44:31;;;;;;;0.68;0.50;;;;;;;23.43;47.75;100243.73;1714894;81;21353;-56
2021/08/13 09:47:05;;;;;;;2.05;0.53;;;;;;;23.52;47.30;100241.53;1660714;85;21097;-57
2021/08/13 09:49:33;;;;;;;3.33;0.60;;;;;;;23.60;45.96;100239.80;1713929;81;21101;-54
2021/08/13 09:52:16;;;;;;;0.95;0.60;;;;;;;23.62;45.41;100246.53;1717051;82;21144;-55
2021/08/13 09:54:45;;;;;;;0.65;0.50;;;;;;;23.65;45.30;100248.97;1721830;82;21367;-56
2021/08/13 09:57:14;;;;;;;0.72;0.40;;;;;;;23.66;45.38;100245.20;1712117;82;20954;-56
2021/08/13 10:00:01;;;;;;;0.50;0.50;;;;;;;23.66;44.83;100239.20;1713431;82;21074;-55
2021/08/13 10:02:38;;;;;;;0.80;0.50;;;;;;;23.67;44.83;100240.08;1715722;82;21074;-57
2021/08/13 10:05:23;;;;;;;0.50;0.40;;;;;;;23.69;45.27;100242.19;1711770;82;21819;-56
2021/08/13 10:08:00;;;;;;;0.60;0.50;;;;;;;23.72;45.00;100252.89;1716233;81;20911;-55
2021/08/13 10:10:40;;;;;;;2.50;0.50;;;;;;;23.71;44.81;100248.41;1717647;81;20880;-55
2021/08/13 10:13:10;;;;;;;0.57;0.50;;;;;;;23.73;45.22;100245.02;1723515;82;21267;-55
2021/08/13 10:15:43;;;;;;;0.80;0.60;;;;;;;23.79;44.96;100240.80;1716900;82;20963;-57
2021/08/13 10:18:15;;;;;;;0.50;0.50;;;;;;;23.85;43.39;100239.70;1715308;82;21053;-57
2021/08/13 10:20:47;;;;;;;0.90;0.53;;;;;;;23.89;43.21;100241.16;1716322;81;21090;-56
2021/08/13 10:23:14;;;;;;;0.80;0.50;;;;;;;23.90;42.96;100238.77;1715177;82;21113;-56
2021/08/13 10:25:41;;;;;;;0.53;0.50;;;;;;;23.91;43.08;100240.48;1716682;82;21082;-56
2021/08/13 10:28:08;;;;;;;0.45;0.42;;;;;;;23.93;44.09;100245.84;1713969;82;21136;-57
2021/08/13 10:30:36;;;;;;;0.68;0.53;;;;;;;23.98;44.24;100241.65;1713086;82;21117;-56
2021/08/13 10:33:07;;;;;;;1.12;0.60;;;;;;;24.05;44.10;100237.29;1718738;82;21447;-57
2021/08/13 10:35:54;;;;;;;1.15;0.50;;;;;;;24.13;43.30;100235.17;1713996;82;21026;-55
2021/08/13 10:38:21;;;;;;;0.53;0.47;;;;;;;24.19;42.85;100237.81;1711601;81;21168;-55
2021/08/13 10:40:48;;;;;;;0.50;0.50;;;;;;;24.22;42.96;100238.44;1719058;81;21077;-58
2021/08/13 10:43:16;;;;;;;0.62;0.57;;;;;;;24.25;42.65;100241.38;1719573;82;21515;-56
2021/08/13 10:45:42;;;;;;;0.80;0.40;;;;;;;24.27;41.69;100236.09;1720584;82;22355;-57
2021/08/13 10:48:18;;;;;;;1.40;0.60;;;;;;;24.26;41.93;100238.98;1720607;81;21444;-55
2021/08/13 10:50:45;;;;;;;0.50;0.40;;;;;;;24.25;42.34;100232.61;1728583;82;21716;-54
2021/08/13 10:53:35;;;;;;;0.50;0.50;;;;;;;24.26;42.55;100223.86;1718324;82;21061;-55
2021/08/13 10:56:12;;;;;;;1.10;0.50;;;;;;;24.27;42.07;100240.22;1701467;82;21107;-58
2021/08/13 10:58:42;;;;;;;0.65;0.45;;;;;;;24.28;42.11;100228.20;1691990;82;21607;-55
2021/08/13 11:01:21;;;;;;;0.55;0.50;;;;;;;24.30;42.13;100238.55;1717547;82;21038;-57
2021/08/13 11:04:01;;;;;;;0.60;0.55;;;;;;;24.34;41.43;100229.47;1720453;82;21062;-55
2021/08/13 11:06:43;;;;;;;0.50;0.50;;;;;;;24.38;41.48;100235.05;1723087;82;21121;-56
2021/08/13 11:09:21;;;;;;;0.60;0.50;;;;;;;24.41;41.96;100227.34;1722234;82;21221;-56
2021/08/13 11:11:55;;;;;;;3.58;0.60;;;;;;;24.47;40.85;100230.02;1697686;82;21050;-56
2021/08/13 11:14:28;;;;;;;0.70;0.50;;;;;;;24.51;41.39;100231.43;1701119;82;21050;-56
2021/08/13 11:16:56;;;;;;;1.00;0.57;;;;;;;24.55;41.54;100223.25;1705076;81;20991;-56
2021/08/13 11:19:24;;;;;;;1.85;0.50;;;;;;;24.62;41.54;100231.25;1715463;82;21292;-57
2021/08/13 11:22:02;;;;;;;2.98;0.60;;;;;;;24.71;40.90;100220.70;1704220;82;21073;-56
2021/08/13 11:24:52;;;;;;;2.75;0.80;;;;;;;24.79;41.04;100227.68;1720096;82;21057;-56
2021/08/13 11:27:20;;;;;;;0.70;0.50;;;;;;;24.78;41.19;100227.32;1720895;82;21057;-57
2021/08/13 11:29:47;;;;;;;0.88;0.40;;;;;;;24.81;39.81;100223.41;1717891;82;21067;-57
2021/08/13 11:32:21;;;;;;;0.55;0.50;;;;;;;24.79;40.77;100228.19;1714999;82;21560;-57
2021/08/13 11:34:58;;;;;;;0.65;0.50;;;;;;;24.80;40.37;100222.53;1713407;82;21125;-58
2021/08/13 11:37:38;;;;;;;1.40;0.50;;;;;;;24.84;40.63;100225.32;1720281;81;21054;-57